createdAt,value
2023-05-13T00:00:19.726Z,1.00
2023-05-13T00:02:48.174Z,1.00
2023-05-13T00:05:16.378Z,1.00
2023-05-13T00:07:45.947Z,2.60
2023-05-13T00:10:14.287Z,99.90
2023-05-13T00:12:42.525Z,99.90
2023-05-13T00:15:11.459Z,99.90
2023-05-13T00:17:39.739Z,99.90
2023-05-13T00:20:09.270Z,99.90
2023-05-13T00:22:37.836Z,99.90
2023-05-13T00:25:07.773Z,99.90
2023-05-13T00:27:36.029Z,99.90
2023-05-13T00:30:05.705Z,99.90
2023-05-13T00:32:34.041Z,99.90
2023-05-13T00:35:02.495Z,99.90
2023-05-13T00:37:31.305Z,99.90
2023-05-13T00:39:59.514Z,99.90
2023-05-13T00:42:29.357Z,99.90
2023-05-13T00:44:57.571Z,1.00
2023-05-13T00:47:25.935Z,1.00
2023-05-13T00:49:54.272Z,1.00
2023-05-13T00:52:22.547Z,1.00
2023-05-13T00:54:50.767Z,1.00
2023-05-13T00:57:19.064Z,99.90
2023-05-13T00:59:48.630Z,99.90
2023-05-13T01:02:24.481Z,99.90
2023-05-13T01:05:00.926Z,99.90
2023-05-13T01:07:36.049Z,99.90
2023-05-13T01:10:10.246Z,99.90
2023-05-13T01:12:41.809Z,99.90
2023-05-13T01:15:13.875Z,1.00
2023-05-13T01:17:49.559Z,1.00
2023-05-13T01:20:22.313Z,1.00
2023-05-13T01:22:52.184Z,1.00
2023-05-13T01:25:20.483Z,8.60
2023-05-13T01:27:48.755Z,99.90
2023-05-13T01:30:18.844Z,99.90
2023-05-13T01:32:47.623Z,1.00
2023-05-13T01:35:18.545Z,1.00
2023-05-13T01:37:48.023Z,1.00
2023-05-13T01:40:31.618Z,1.00
2023-05-13T01:43:03.259Z,1.00
2023-05-13T01:45:32.286Z,1.00
2023-05-13T01:48:01.127Z,1.00
2023-05-13T01:50:38.899Z,1.00
2023-05-13T01:53:07.894Z,23.40
2023-05-13T01:55:38.001Z,22.90
2023-05-13T01:58:07.094Z,41.20
2023-05-13T02:00:35.350Z,99.90
2023-05-13T02:03:03.720Z,99.90
2023-05-13T02:05:33.343Z,99.90
2023-05-13T02:08:06.596Z,99.90
2023-05-13T02:10:34.898Z,1.00
2023-05-13T02:13:04.484Z,65.70
2023-05-13T02:15:33.057Z,8.00
2023-05-13T02:18:01.476Z,99.90
2023-05-13T02:20:29.838Z,1.00
2023-05-13T02:22:58.109Z,66.50
2023-05-13T02:25:26.274Z,99.90
2023-05-13T02:27:54.458Z,99.90
2023-05-13T02:30:26.973Z,99.90
2023-05-13T02:32:56.284Z,99.90
2023-05-13T02:35:25.716Z,99.90
2023-05-13T02:37:54.446Z,99.90
2023-05-13T02:40:22.975Z,99.90
2023-05-13T02:42:52.246Z,81.90
2023-05-13T02:45:28.819Z,1.00
2023-05-13T02:47:58.698Z,1.00
2023-05-13T02:50:27.075Z,1.00
2023-05-13T02:52:56.909Z,99.90
2023-05-13T02:55:26.430Z,99.90
2023-05-13T02:57:56.839Z,99.90
2023-05-13T03:00:26.586Z,99.90
2023-05-13T03:02:56.418Z,99.90
2023-05-13T03:05:24.730Z,99.90
2023-05-13T03:07:52.900Z,99.90
2023-05-13T03:10:21.606Z,99.90
2023-05-13T03:12:50.017Z,27.30
2023-05-13T03:15:18.493Z,1.00
2023-05-13T03:17:46.772Z,1.00
2023-05-13T03:20:16.615Z,99.90
2023-05-13T03:22:44.826Z,99.90
2023-05-13T03:25:13.605Z,99.90
2023-05-13T03:27:46.685Z,99.90
2023-05-13T03:30:16.127Z,99.90
2023-05-13T03:32:51.035Z,99.90
2023-05-13T03:35:20.636Z,1.00
2023-05-13T03:37:48.956Z,1.00
2023-05-13T03:40:18.186Z,1.00
2023-05-13T03:42:46.488Z,1.00
2023-05-13T03:45:14.710Z,1.00
2023-05-13T03:47:46.374Z,99.90
2023-05-13T03:50:17.602Z,99.90
2023-05-13T03:52:47.952Z,99.90
2023-05-13T03:55:17.876Z,1.00
2023-05-13T03:57:51.235Z,99.90
2023-05-13T04:00:22.580Z,1.00
2023-05-13T04:02:51.309Z,1.00
2023-05-13T04:05:19.814Z,1.00
2023-05-13T04:07:49.418Z,1.00
2023-05-13T04:10:17.831Z,60.20
2023-05-13T04:12:46.053Z,1.00
2023-05-13T04:15:14.238Z,1.00
2023-05-13T04:17:42.521Z,99.90
2023-05-13T04:20:11.289Z,99.90
2023-05-13T04:22:39.548Z,1.00
2023-05-13T04:25:10.020Z,99.90
2023-05-13T04:27:38.333Z,42.00
2023-05-13T04:30:13.556Z,1.00
2023-05-13T04:32:43.151Z,1.00
2023-05-13T04:35:13.277Z,99.90
2023-05-13T04:37:44.817Z,99.90
2023-05-13T04:40:17.882Z,23.30
2023-05-13T04:42:54.576Z,1.00
2023-05-13T04:45:27.960Z,1.00
2023-05-13T04:47:58.451Z,1.00
2023-05-13T04:50:27.185Z,99.90
2023-05-13T04:52:56.566Z,99.90
2023-05-13T04:55:27.672Z,99.90
2023-05-13T04:57:57.403Z,1.00
2023-05-13T05:00:25.874Z,1.00
2023-05-13T05:02:54.206Z,99.90
2023-05-13T05:05:23.770Z,99.90
2023-05-13T05:07:52.532Z,99.90
2023-05-13T05:10:23.037Z,45.70
2023-05-13T05:12:57.023Z,1.00
2023-05-13T05:15:26.156Z,1.00
2023-05-13T05:17:57.555Z,1.00
2023-05-13T05:20:25.992Z,1.00
2023-05-13T05:22:57.494Z,1.00
2023-05-13T05:25:28.002Z,1.00
2023-05-13T05:27:58.154Z,1.00
2023-05-13T05:30:26.799Z,1.00
2023-05-13T05:33:01.961Z,1.00
2023-05-13T05:35:30.423Z,1.00
2023-05-13T05:37:59.407Z,1.00
2023-05-13T05:40:27.655Z,1.00
2023-05-13T05:42:57.262Z,1.00
2023-05-13T05:45:25.426Z,1.00
2023-05-13T05:47:54.258Z,1.00
2023-05-13T05:50:23.772Z,1.00
2023-05-13T05:52:52.754Z,1.00
2023-05-13T05:55:21.649Z,1.00
2023-05-13T05:57:49.917Z,1.00
2023-05-13T06:00:20.318Z,1.00
2023-05-13T06:02:48.925Z,1.00
2023-05-13T06:05:18.166Z,99.90
2023-05-13T06:07:48.671Z,99.90
2023-05-13T06:10:17.879Z,99.90
2023-05-13T06:12:47.091Z,99.90
2023-05-13T06:15:15.386Z,99.90
2023-05-13T06:17:47.624Z,99.90
2023-05-13T06:20:16.016Z,99.90
2023-05-13T06:22:44.454Z,99.90
2023-05-13T06:25:14.986Z,99.90
2023-05-13T06:27:45.387Z,99.90
2023-05-13T06:30:14.628Z,99.90
2023-05-13T06:32:53.464Z,99.90
2023-05-13T06:35:27.415Z,99.90
2023-05-13T06:37:57.738Z,99.90
2023-05-13T06:40:26.952Z,99.90
2023-05-13T06:42:58.781Z,99.90
2023-05-13T06:45:38.941Z,94.30
2023-05-13T06:48:07.813Z,82.00
2023-05-13T06:50:39.950Z,83.00
2023-05-13T06:53:08.448Z,78.40
2023-05-13T06:55:41.644Z,77.20
2023-05-13T06:58:10.417Z,77.30
2023-05-13T07:00:40.247Z,61.80
2023-05-13T07:03:09.066Z,57.40
2023-05-13T07:05:39.032Z,58.70
2023-05-13T07:08:08.568Z,53.60
2023-05-13T07:10:38.068Z,53.60
2023-05-13T07:13:08.687Z,53.10
2023-05-13T07:15:37.362Z,52.70
2023-05-13T07:18:05.798Z,46.70
2023-05-13T07:20:34.348Z,39.80
2023-05-13T07:23:04.026Z,44.10
2023-05-13T07:25:32.232Z,48.90
2023-05-13T07:28:00.415Z,50.10
2023-05-13T07:30:28.740Z,44.40
2023-05-13T07:32:57.035Z,45.70
2023-05-13T07:35:25.374Z,42.60
2023-05-13T07:37:53.672Z,42.40
2023-05-13T07:40:23.461Z,40.10
2023-05-13T07:42:52.002Z,41.30
2023-05-13T07:45:20.423Z,39.50
2023-05-13T07:47:48.946Z,40.50
2023-05-13T07:50:17.551Z,41.30
2023-05-13T07:52:49.039Z,42.50
2023-05-13T07:55:17.488Z,41.40
2023-05-13T07:57:47.009Z,38.80
2023-05-13T08:00:16.330Z,44.70
2023-05-13T08:02:45.019Z,41.60
2023-05-13T08:05:13.321Z,41.90
2023-05-13T08:07:41.578Z,36.80
2023-05-13T08:10:10.169Z,37.00
2023-05-13T08:12:40.433Z,37.10
2023-05-13T08:15:12.076Z,33.00
2023-05-13T08:17:40.464Z,31.40
2023-05-13T08:20:11.385Z,31.60
2023-05-13T08:22:39.702Z,27.30
2023-05-13T08:25:08.253Z,25.90
2023-05-13T08:27:37.572Z,25.00
2023-05-13T08:30:11.050Z,21.50
2023-05-13T08:32:42.284Z,17.00
2023-05-13T08:35:17.686Z,20.80
2023-05-13T08:37:48.096Z,20.00
2023-05-13T08:40:18.577Z,16.50
2023-05-13T08:42:54.485Z,19.60
2023-05-13T08:45:32.418Z,19.30
2023-05-13T08:48:04.293Z,13.20
2023-05-13T08:50:33.491Z,20.40
2023-05-13T08:53:02.100Z,16.00
2023-05-13T08:55:30.571Z,10.80
2023-05-13T08:57:59.436Z,14.00
2023-05-13T09:00:37.189Z,13.70
2023-05-13T09:03:09.154Z,10.60
2023-05-13T09:05:42.690Z,7.10
2023-05-13T09:08:11.656Z,7.40
2023-05-13T09:10:40.163Z,17.70
2023-05-13T09:13:08.569Z,8.80
2023-05-13T09:15:38.389Z,7.90
2023-05-13T09:18:08.713Z,7.70
2023-05-13T09:20:37.675Z,9.60
2023-05-13T09:23:09.035Z,6.60
2023-05-13T09:25:38.883Z,7.10
2023-05-13T09:28:08.978Z,7.20
2023-05-13T09:30:40.496Z,9.40
2023-05-13T09:33:10.863Z,7.50
2023-05-13T09:35:41.038Z,6.60
2023-05-13T09:38:17.130Z,6.70
2023-05-13T09:40:52.944Z,9.00
2023-05-13T09:43:23.737Z,8.80
2023-05-13T09:45:56.390Z,4.20
2023-05-13T09:48:27.883Z,5.10
2023-05-13T09:50:58.411Z,4.00
2023-05-13T09:53:27.456Z,2.60
2023-05-13T09:55:57.185Z,2.90
2023-05-13T09:58:28.152Z,6.20
2023-05-13T10:00:58.605Z,6.30
2023-05-13T10:03:28.660Z,5.50
2023-05-13T10:05:58.000Z,6.00
2023-05-13T10:08:28.392Z,6.50
2023-05-13T10:10:57.507Z,3.40
2023-05-13T10:13:26.418Z,1.00
2023-05-13T10:15:57.073Z,1.00
2023-05-13T10:18:29.116Z,2.20
2023-05-13T10:20:58.167Z,2.90
2023-05-13T10:23:27.234Z,7.30
2023-05-13T10:25:56.409Z,4.00
2023-05-13T10:28:26.503Z,2.00
2023-05-13T10:30:54.897Z,1.00
2023-05-13T10:33:23.635Z,1.00
2023-05-13T10:36:05.372Z,1.00
2023-05-13T10:38:50.148Z,1.50
2023-05-13T10:41:40.243Z,1.00
2023-05-13T10:44:09.875Z,1.00
2023-05-13T10:46:39.771Z,1.00
2023-05-13T10:49:16.238Z,1.00
2023-05-13T10:51:49.434Z,1.00
2023-05-13T10:54:21.752Z,1.00
2023-05-13T10:56:58.441Z,1.00
2023-05-13T10:59:30.467Z,1.00
2023-05-13T11:02:02.128Z,1.00
2023-05-13T11:04:31.158Z,1.00
2023-05-13T11:07:16.724Z,1.00
2023-05-13T11:09:51.999Z,1.00
2023-05-13T11:12:20.190Z,1.00
2023-05-13T11:14:49.767Z,1.00
2023-05-13T11:17:21.886Z,1.00
2023-05-13T11:19:52.365Z,1.00
2023-05-13T11:22:24.271Z,1.00
2023-05-13T11:25:06.350Z,1.00
2023-05-13T11:27:39.250Z,1.00
2023-05-13T11:30:09.634Z,1.00
2023-05-13T11:32:58.671Z,1.00
2023-05-13T11:35:28.598Z,1.00
2023-05-13T11:38:00.448Z,1.00
2023-05-13T11:40:30.578Z,1.00
2023-05-13T11:43:02.577Z,1.00
2023-05-13T11:45:33.987Z,1.00
2023-05-13T11:48:19.575Z,1.00
2023-05-13T11:50:48.212Z,1.00
2023-05-13T11:53:22.352Z,1.00
2023-05-13T11:55:52.789Z,1.00
2023-05-13T11:58:22.709Z,1.00
2023-05-13T12:00:56.616Z,1.00
2023-05-13T12:03:25.183Z,1.00
2023-05-13T12:06:02.556Z,1.00
2023-05-13T12:08:45.527Z,1.00
2023-05-13T12:11:15.642Z,1.00
2023-05-13T12:13:44.162Z,1.00
2023-05-13T12:16:12.909Z,1.00
2023-05-13T12:18:41.313Z,1.00
2023-05-13T12:21:17.432Z,1.00
2023-05-13T12:23:47.310Z,1.00
2023-05-13T12:26:15.873Z,1.00
2023-05-13T12:28:44.331Z,1.00
2023-05-13T12:31:17.627Z,1.00
2023-05-13T12:33:49.387Z,1.00
2023-05-13T12:36:20.276Z,1.00
2023-05-13T12:38:59.854Z,1.00
2023-05-13T12:41:30.734Z,1.00
2023-05-13T12:44:00.344Z,1.00
2023-05-13T12:46:29.192Z,1.00
2023-05-13T12:48:58.951Z,1.00
2023-05-13T12:51:27.609Z,1.00
2023-05-13T12:53:58.386Z,1.00
2023-05-13T12:56:27.364Z,1.00
2023-05-13T12:58:56.008Z,1.00
2023-05-13T13:01:24.473Z,1.00
2023-05-13T13:03:52.805Z,1.00
2023-05-13T13:06:21.164Z,1.00
2023-05-13T13:08:49.457Z,1.00
2023-05-13T13:11:19.479Z,1.00
2023-05-13T13:13:49.141Z,1.00
2023-05-13T13:16:17.502Z,1.00
2023-05-13T13:18:45.917Z,1.00
2023-05-13T13:21:14.177Z,1.00
2023-05-13T13:23:42.371Z,1.00
2023-05-13T13:26:11.368Z,1.00
2023-05-13T13:28:40.885Z,1.00
2023-05-13T13:31:09.052Z,1.00
2023-05-13T13:33:37.235Z,1.00
2023-05-13T13:36:05.868Z,1.00
2023-05-13T13:38:34.097Z,1.00
2023-05-13T13:41:02.293Z,1.00
2023-05-13T13:43:30.470Z,1.00
2023-05-13T13:46:00.177Z,1.00
2023-05-13T13:48:28.433Z,1.00
2023-05-13T13:50:58.504Z,1.00
2023-05-13T13:53:26.698Z,1.00
2023-05-13T13:55:54.967Z,1.00
2023-05-13T13:58:23.101Z,1.00
2023-05-13T14:00:51.374Z,1.00
2023-05-13T14:03:20.988Z,1.00
2023-05-13T14:05:49.979Z,1.00
2023-05-13T14:08:18.177Z,1.00
2023-05-13T14:10:46.367Z,1.00
2023-05-13T14:13:14.626Z,1.00
2023-05-13T14:15:42.798Z,1.00
2023-05-13T14:18:10.974Z,1.00
2023-05-13T14:20:40.569Z,1.00
2023-05-13T14:23:08.777Z,1.00
2023-05-13T14:25:37.114Z,1.00
2023-05-13T14:28:05.376Z,1.00
2023-05-13T14:30:33.540Z,1.00
2023-05-13T14:33:01.942Z,1.00
2023-05-13T14:35:30.203Z,1.00
2023-05-13T14:37:59.882Z,1.00
2023-05-13T14:40:28.085Z,1.00
2023-05-13T14:42:56.233Z,1.00
2023-05-13T14:45:24.378Z,1.00
2023-05-13T14:47:53.993Z,1.00
2023-05-13T14:50:22.856Z,1.00
2023-05-13T14:52:51.292Z,1.00
2023-05-13T14:55:20.986Z,1.00
2023-05-13T14:57:49.512Z,1.00
2023-05-13T15:00:18.396Z,1.00
2023-05-13T15:02:46.594Z,1.00
2023-05-13T15:05:14.846Z,1.00
2023-05-13T15:07:43.114Z,1.00
2023-05-13T15:10:12.066Z,1.00
2023-05-13T15:12:41.916Z,1.00
2023-05-13T15:15:12.519Z,1.00
2023-05-13T15:17:40.900Z,1.00
2023-05-13T15:20:09.954Z,1.00
2023-05-13T15:22:38.346Z,1.00
2023-05-13T15:25:07.361Z,1.00
2023-05-13T15:27:35.835Z,1.00
2023-05-13T15:30:05.821Z,1.00
2023-05-13T15:32:34.151Z,1.00
2023-05-13T15:35:02.349Z,1.00
2023-05-13T15:37:30.556Z,1.00
2023-05-13T15:39:58.839Z,1.00
2023-05-13T15:42:27.678Z,1.00
2023-05-13T15:44:55.935Z,1.00
2023-05-13T15:47:25.686Z,1.00
2023-05-13T15:49:54.297Z,1.00
2023-05-13T15:52:22.433Z,1.00
2023-05-13T15:54:50.688Z,1.00
2023-05-13T15:57:19.296Z,1.00
2023-05-13T15:59:47.597Z,1.00
2023-05-13T16:02:17.657Z,1.00
2023-05-13T16:04:47.427Z,1.00
2023-05-13T16:07:15.876Z,1.00
2023-05-13T16:09:44.156Z,1.00
2023-05-13T16:12:12.359Z,1.00
2023-05-13T16:14:40.564Z,1.00
2023-05-13T16:17:08.803Z,1.00
2023-05-13T16:19:37.064Z,1.00
2023-05-13T16:22:28.098Z,1.00
2023-05-13T16:24:59.846Z,1.00
2023-05-13T16:27:28.318Z,1.00
2023-05-13T16:29:57.132Z,1.00
2023-05-13T16:32:25.725Z,1.00
2023-05-13T16:34:54.175Z,1.00
2023-05-13T16:37:22.454Z,1.00
2023-05-13T16:39:52.039Z,1.00
2023-05-13T16:42:20.499Z,1.00
2023-05-13T16:44:48.773Z,1.00
2023-05-13T16:47:16.958Z,1.00
2023-05-13T16:49:45.538Z,1.00
2023-05-13T16:52:13.735Z,1.00
2023-05-13T16:54:42.111Z,1.00
2023-05-13T16:57:11.692Z,1.00
2023-05-13T16:59:39.876Z,1.00
2023-05-13T17:02:08.466Z,1.00
2023-05-13T17:04:37.346Z,1.00
2023-05-13T17:07:05.855Z,1.00
2023-05-13T17:09:34.284Z,1.00
2023-05-13T17:12:02.689Z,1.00
2023-05-13T17:14:32.403Z,1.00
2023-05-13T17:17:03.714Z,1.00
2023-05-13T17:19:36.958Z,1.00
2023-05-13T17:22:05.249Z,1.00
2023-05-13T17:24:33.452Z,1.00
2023-05-13T17:35:17.598Z,1.00
2023-05-13T17:37:45.972Z,1.00
2023-05-13T17:40:14.501Z,1.10
2023-05-13T17:42:42.709Z,1.00
2023-05-13T17:45:11.577Z,1.00
2023-05-13T17:47:40.019Z,1.00
2023-05-13T17:50:09.068Z,1.00
2023-05-13T17:52:38.662Z,1.70
2023-05-13T17:55:08.001Z,1.00
2023-05-13T17:57:36.284Z,1.00
2023-05-13T18:00:06.904Z,1.50
2023-05-13T18:02:37.167Z,4.40
2023-05-13T18:05:05.741Z,3.80
2023-05-13T18:07:34.294Z,4.90
2023-05-13T18:10:04.080Z,4.50
2023-05-13T18:12:32.288Z,6.30
2023-05-13T18:15:00.533Z,7.40
2023-05-13T18:17:29.122Z,11.00
2023-05-13T18:19:57.641Z,9.80
2023-05-13T18:22:26.414Z,10.40
2023-05-13T18:24:55.025Z,11.00
2023-05-13T18:27:29.955Z,14.60
2023-05-13T18:29:58.301Z,16.00
2023-05-13T18:32:26.786Z,24.10
2023-05-13T18:34:55.168Z,25.90
2023-05-13T18:37:23.485Z,28.10
2023-05-13T18:39:51.967Z,28.80
2023-05-13T18:42:22.253Z,29.80
2023-05-13T18:44:52.079Z,31.80
2023-05-13T18:47:20.833Z,38.90
2023-05-13T18:49:49.156Z,44.70
2023-05-13T18:52:17.376Z,52.40
2023-05-13T18:54:45.753Z,55.80
2023-05-13T18:57:14.006Z,65.20
2023-05-13T18:59:42.257Z,73.00
2023-05-13T19:02:11.990Z,76.00
2023-05-13T19:04:40.338Z,79.90
2023-05-13T19:07:08.708Z,82.00
2023-05-13T19:09:36.857Z,88.60
2023-05-13T19:12:05.575Z,91.80
2023-05-13T19:14:33.717Z,96.90
2023-05-13T19:17:02.530Z,99.30
2023-05-13T19:19:32.160Z,99.90
2023-05-13T19:22:00.511Z,99.90
2023-05-13T19:24:31.375Z,99.90
2023-05-13T19:26:59.925Z,99.90
2023-05-13T19:29:28.118Z,99.90
2023-05-13T19:31:56.375Z,99.90
2023-05-13T19:34:24.568Z,99.90
2023-05-13T19:36:57.079Z,99.90
2023-05-13T19:39:30.936Z,99.90
2023-05-13T19:42:07.668Z,99.90
2023-05-13T19:44:38.613Z,99.90
2023-05-13T19:47:07.670Z,99.90
2023-05-13T19:49:36.130Z,99.90
2023-05-13T19:52:06.602Z,99.90
2023-05-13T19:54:38.047Z,99.90
2023-05-13T19:57:06.534Z,99.90
2023-05-13T19:59:36.021Z,99.90
2023-05-13T20:02:07.686Z,99.90
2023-05-13T20:04:36.337Z,99.90
2023-05-13T20:07:08.557Z,99.90
2023-05-13T20:09:37.644Z,1.00
2023-05-13T20:12:06.482Z,1.00
2023-05-13T20:14:44.653Z,1.00
2023-05-13T20:17:17.840Z,1.00
2023-05-13T20:19:47.470Z,1.00
2023-05-13T20:22:18.503Z,1.00
2023-05-13T20:24:48.721Z,1.00
2023-05-13T20:27:17.978Z,1.00
2023-05-13T20:29:48.104Z,1.00
2023-05-13T20:32:21.206Z,1.00
2023-05-13T20:34:49.441Z,1.00
2023-05-13T20:37:19.724Z,1.00
2023-05-13T20:39:49.532Z,1.00
2023-05-13T20:42:17.886Z,1.00
2023-05-13T20:44:46.470Z,1.00
2023-05-13T20:47:15.130Z,1.00
2023-05-13T20:49:44.234Z,1.00
2023-05-13T20:52:12.607Z,1.00
2023-05-13T20:54:42.182Z,1.00
2023-05-13T20:57:13.300Z,1.00
2023-05-13T20:59:46.673Z,1.00
2023-05-13T21:02:15.050Z,1.00
2023-05-13T21:04:43.326Z,1.00
2023-05-13T21:07:11.762Z,1.00
2023-05-13T21:09:42.014Z,1.00
2023-05-13T21:12:11.731Z,11.80
2023-05-13T21:14:40.008Z,56.30
2023-05-13T21:17:09.579Z,93.70
2023-05-13T21:19:40.748Z,99.90
2023-05-13T21:22:09.198Z,99.90
2023-05-13T21:24:37.441Z,99.90
2023-05-13T21:27:07.482Z,99.90
2023-05-13T21:29:36.067Z,99.90
2023-05-13T21:32:04.541Z,1.00
2023-05-13T21:34:32.987Z,1.00
2023-05-13T21:37:01.293Z,1.00
2023-05-13T21:39:31.634Z,1.00
2023-05-13T21:42:00.783Z,1.00
2023-05-13T21:44:30.557Z,1.00
2023-05-13T21:46:58.921Z,1.00
2023-05-13T21:49:27.205Z,58.00
2023-05-13T21:51:55.618Z,99.90
2023-05-13T21:54:23.885Z,99.90
2023-05-13T21:56:52.218Z,99.90
2023-05-13T21:59:20.639Z,99.90
2023-05-13T22:01:50.398Z,99.90
2023-05-13T22:04:18.848Z,99.90
2023-05-13T22:06:47.237Z,99.90
2023-05-13T22:09:15.814Z,1.00
2023-05-13T22:11:44.819Z,1.00
2023-05-13T22:14:15.226Z,1.00
2023-05-13T22:16:45.211Z,1.00
2023-05-13T22:19:17.575Z,1.00
2023-05-13T22:21:46.317Z,1.00
2023-05-13T22:24:14.616Z,1.00
2023-05-13T22:26:45.094Z,1.00
2023-05-13T22:29:13.517Z,1.00
2023-05-13T22:31:41.857Z,1.00
2023-05-13T22:34:10.146Z,1.00
2023-05-13T22:36:41.867Z,1.00
2023-05-13T22:39:12.354Z,1.00
2023-05-13T22:41:41.873Z,1.00
2023-05-13T22:44:13.202Z,1.00
2023-05-13T22:46:41.919Z,1.00
2023-05-13T22:49:12.379Z,1.00
2023-05-13T22:51:42.191Z,1.00
2023-05-13T22:54:10.547Z,99.90
2023-05-13T22:56:43.418Z,99.90
2023-05-13T22:59:11.879Z,99.90
2023-05-13T23:01:40.205Z,99.90
2023-05-13T23:04:09.637Z,99.90
2023-05-13T23:06:38.076Z,99.90
2023-05-13T23:09:07.860Z,99.90
2023-05-13T23:11:39.036Z,99.90
2023-05-13T23:14:07.598Z,1.00
2023-05-13T23:16:36.353Z,1.00
2023-05-13T23:19:07.037Z,1.00
2023-05-13T23:21:35.516Z,1.00
2023-05-13T23:24:03.878Z,1.00
2023-05-13T23:26:33.837Z,1.00
2023-05-13T23:29:02.125Z,1.00
2023-05-13T23:31:41.234Z,90.40
2023-05-13T23:34:10.215Z,40.80
2023-05-13T23:36:38.619Z,92.70
2023-05-13T23:39:07.195Z,70.80
2023-05-13T23:41:36.942Z,68.20
2023-05-13T23:44:05.593Z,99.90
2023-05-13T23:46:36.502Z,99.90
2023-05-13T23:49:04.927Z,99.90
2023-05-13T23:51:34.690Z,99.90
2023-05-13T23:54:03.036Z,99.90
2023-05-13T23:56:31.240Z,99.90
2023-05-13T23:59:01.167Z,99.90
